Time;durP1;ratioP1;P1;durP2;ratioP2;P2;SDS_P1;SDS_P2;PMS_P1;PMS_P2;Temp;Humidity;BMP_temperature;BMP_pressure;BME280_temperature;BME280_humidity;BME280_pressure;Samples;Min_cycle;Max_cycle;Signal;HPM_P1;HPM_P2
2022/05/05 00:01:34;;;;;;;13.93;9.67;;;12.90;90.40;;;;;;5047771;28;20418;-76
2022/05/05 00:04:01;;;;;;;14.23;9.40;;;12.90;90.40;;;;;;5050485;28;20751;-75
2022/05/05 00:06:30;;;;;;;15.23;8.80;;;12.90;90.50;;;;;;5046626;28;20434;-76
2022/05/05 00:08:56;;;;;;;16.10;9.70;;;12.90;90.40;;;;;;5051338;28;20423;-76
2022/05/05 00:14:25;;;;;;;13.93;9.53;;;12.90;90.20;;;;;;5051002;28;20418;-76
2022/05/05 00:16:51;;;;;;;14.87;9.60;;;13.00;90.10;;;;;;5050099;28;20475;-75
2022/05/05 00:19:17;;;;;;;15.40;9.43;;;13.00;90.10;;;;;;5050694;28;20486;-76
2022/05/05 00:21:42;;;;;;;11.90;8.37;;;13.00;89.90;;;;;;5050168;28;20425;-76
2022/05/05 00:24:09;;;;;;;12.97;8.53;;;13.00;89.90;;;;;;5049155;28;20254;-76
2022/05/05 00:26:35;;;;;;;14.47;9.07;;;13.00;90.00;;;;;;5049950;28;20188;-76
2022/05/05 00:29:01;;;;;;;15.93;9.03;;;12.90;90.00;;;;;;5050546;28;20507;-76
2022/05/05 00:31:27;;;;;;;11.47;8.50;;;12.90;90.10;;;;;;5049807;28;20449;-75
2022/05/05 00:33:52;;;;;;;17.70;9.27;;;12.80;90.30;;;;;;5050148;28;20874;-76
2022/05/05 00:36:18;;;;;;;11.93;8.40;;;12.80;90.40;;;;;;5049751;28;20200;-76
2022/05/05 00:38:44;;;;;;;14.03;8.47;;;12.90;90.40;;;;;;5050718;28;20251;-75
2022/05/05 00:41:09;;;;;;;11.77;8.30;;;12.90;90.20;;;;;;5052494;28;20606;-76
2022/05/05 00:43:35;;;;;;;16.20;8.73;;;12.90;90.20;;;;;;5051999;28;20222;-75
2022/05/05 00:46:03;;;;;;;13.63;9.57;;;13.00;90.20;;;;;;5051397;28;21045;-76
2022/05/05 00:48:29;;;;;;;17.80;9.33;;;12.90;90.10;;;;;;5053471;28;20422;-76
2022/05/05 00:50:55;;;;;;;13.53;8.67;;;12.90;90.20;;;;;;5054281;28;20422;-77
2022/05/05 00:53:22;;;;;;;11.83;8.40;;;12.90;90.20;;;;;;5052598;28;20671;-75
2022/05/05 00:55:53;;;;;;;13.13;8.80;;;12.90;90.40;;;;;;5050748;28;20583;-76
2022/05/05 00:58:19;;;;;;;14.00;9.73;;;12.80;90.40;;;;;;5051619;28;20415;-76
2022/05/05 01:00:45;;;;;;;17.30;9.70;;;12.70;90.50;;;;;;5046405;28;20455;-76
2022/05/05 01:03:12;;;;;;;14.20;9.13;;;12.70;90.70;;;;;;5055766;28;20496;-76
2022/05/05 01:05:39;;;;;;;16.90;10.33;;;12.60;90.90;;;;;;5053752;28;20435;-76
2022/05/05 01:08:05;;;;;;;20.10;10.63;;;12.60;91.10;;;;;;5054735;28;20423;-78
2022/05/05 01:10:32;;;;;;;11.00;8.50;;;12.50;91.10;;;;;;5054200;28;21010;-77
2022/05/05 01:12:58;;;;;;;13.37;9.40;;;12.50;91.20;;;;;;5053463;28;20431;-76
2022/05/05 01:15:24;;;;;;;16.53;9.80;;;12.60;91.10;;;;;;5053343;28;20457;-77
2022/05/05 01:17:50;;;;;;;15.10;8.30;;;12.60;91.00;;;;;;5053241;28;20415;-76
2022/05/05 01:20:18;;;;;;;14.20;9.00;;;12.60;90.90;;;;;;5053340;28;20435;-76
2022/05/05 01:22:45;;;;;;;14.63;8.17;;;12.60;90.90;;;;;;5053084;28;20184;-77
2022/05/05 01:28:14;;;;;;;13.50;9.40;;;12.60;90.90;;;;;;5052683;28;20793;-76
2022/05/05 01:30:45;;;;;;;13.17;8.57;;;12.60;91.00;;;;;;5052233;28;20438;-76
2022/05/05 01:33:14;;;;;;;14.30;9.83;;;12.60;91.00;;;;;;5052718;28;20415;-76
2022/05/05 01:35:41;;;;;;;13.30;8.83;;;12.60;91.00;;;;;;5051399;28;20455;-76
2022/05/05 01:38:08;;;;;;;13.07;8.27;;;12.60;91.10;;;;;;5052626;28;20433;-76
2022/05/05 01:40:37;;;;;;;12.57;8.87;;;12.70;91.10;;;;;;5053480;28;20434;-77
2022/05/05 01:43:04;;;;;;;15.03;8.93;;;12.70;91.10;;;;;;5051299;28;20426;-75
2022/05/05 01:45:31;;;;;;;15.70;9.50;;;12.70;90.90;;;;;;5053085;28;20429;-75
2022/05/05 01:47:57;;;;;;;12.47;8.77;;;12.80;90.80;;;;;;5051163;28;20558;-76
2022/05/05 01:50:22;;;;;;;12.40;8.57;;;12.90;90.70;;;;;;5051699;28;20961;-76
2022/05/05 01:52:48;;;;;;;15.83;9.87;;;12.90;90.40;;;;;;5052362;28;20434;-76
2022/05/05 01:55:14;;;;;;;12.20;9.33;;;12.90;90.30;;;;;;5052939;28;20584;-75
2022/05/05 01:57:40;;;;;;;13.70;8.93;;;12.90;90.20;;;;;;5052094;28;20419;-76
2022/05/05 02:00:06;;;;;;;19.53;10.20;;;12.90;90.30;;;;;;5046637;28;20223;-75
2022/05/05 02:02:32;;;;;;;17.00;10.20;;;12.90;90.30;;;;;;5052172;28;21837;-75
2022/05/05 02:04:58;;;;;;;11.70;8.53;;;12.90;90.30;;;;;;5051568;28;20423;-77
2022/05/05 02:07:24;;;;;;;12.07;8.93;;;12.80;90.50;;;;;;5052693;28;20199;-76
2022/05/05 02:09:49;;;;;;;16.07;10.70;;;12.80;90.60;;;;;;5053163;28;20208;-76
2022/05/05 02:12:15;;;;;;;14.67;9.40;;;12.80;90.50;;;;;;5051977;28;20187;-77
2022/05/05 02:14:41;;;;;;;13.30;9.37;;;12.80;90.50;;;;;;5052955;28;20226;-76
2022/05/05 02:17:06;;;;;;;18.47;10.07;;;12.80;90.30;;;;;;5052314;28;20232;-76
2022/05/05 02:19:32;;;;;;;14.40;9.23;;;12.80;90.40;;;;;;5052904;28;20619;-75
2022/05/05 02:21:58;;;;;;;14.33;9.80;;;12.80;90.30;;;;;;5052533;28;20774;-76
2022/05/05 02:24:24;;;;;;;16.07;10.37;;;12.80;90.40;;;;;;5052856;28;20177;-76
2022/05/05 02:26:49;;;;;;;14.43;8.47;;;12.70;90.70;;;;;;5052422;28;20189;-76
2022/05/05 02:29:15;;;;;;;17.20;9.63;;;12.70;90.60;;;;;;5052273;28;20208;-76
2022/05/05 02:31:41;;;;;;;13.87;9.93;;;12.70;90.60;;;;;;5052765;28;20184;-76
2022/05/05 02:34:08;;;;;;;14.10;9.20;;;12.60;90.70;;;;;;5052833;28;20263;-75
2022/05/05 02:39:19;;;;;;;13.37;9.20;;;12.60;90.80;;;;;;5053617;28;20437;-76
2022/05/05 02:41:45;;;;;;;14.13;9.13;;;12.60;90.80;;;;;;5055323;28;20415;-74
2022/05/05 02:44:11;;;;;;;12.50;8.77;;;12.50;90.90;;;;;;5062005;28;20181;-75
2022/05/05 02:46:36;;;;;;;14.00;9.47;;;12.50;91.00;;;;;;5062143;28;20419;-75
2022/05/05 02:49:02;;;;;;;14.83;9.73;;;12.50;90.90;;;;;;5054400;28;20207;-75
2022/05/05 02:51:28;;;;;;;14.33;9.53;;;12.50;90.90;;;;;;5060027;28;20184;-75
2022/05/05 02:56:39;;;;;;;15.53;10.27;;;12.30;91.20;;;;;;5052436;28;20235;-75
2022/05/05 02:59:04;;;;;;;13.33;9.30;;;12.20;91.40;;;;;;5054782;28;20881;-77
2022/05/05 03:01:30;;;;;;;17.80;9.53;;;12.10;91.60;;;;;;5051531;28;20172;-76
2022/05/05 03:03:56;;;;;;;11.93;8.47;;;12.10;91.80;;;;;;5051595;28;20204;-75
2022/05/05 03:06:21;;;;;;;13.67;9.50;;;12.10;91.90;;;;;;5050113;28;20191;-77
2022/05/05 03:08:47;;;;;;;15.63;8.47;;;12.10;91.90;;;;;;5052133;28;20580;-74
2022/05/05 03:11:13;;;;;;;12.37;8.37;;;12.10;92.00;;;;;;5053145;28;20208;-76
2022/05/05 03:13:39;;;;;;;14.67;8.83;;;12.10;92.10;;;;;;5052490;28;20247;-77
2022/05/05 03:16:05;;;;;;;12.87;8.30;;;12.10;92.10;;;;;;5051240;28;20231;-77
2022/05/05 03:18:30;;;;;;;14.73;8.23;;;12.10;92.00;;;;;;5051410;28;20177;-76
2022/05/05 03:20:56;;;;;;;15.70;8.70;;;12.00;92.10;;;;;;5049870;28;20926;-77
2022/05/05 03:23:22;;;;;;;16.27;9.40;;;12.00;92.00;;;;;;5051442;28;20234;-77
2022/05/05 03:25:47;;;;;;;14.30;8.93;;;12.00;92.10;;;;;;5052258;28;20191;-75
2022/05/05 03:28:14;;;;;;;16.60;8.87;;;12.00;92.10;;;;;;5052879;28;20207;-76
2022/05/05 03:30:40;;;;;;;12.80;8.70;;;12.00;92.20;;;;;;5053703;28;20208;-76
2022/05/05 03:33:07;;;;;;;16.60;10.20;;;11.90;92.30;;;;;;5053278;28;20873;-76
2022/05/05 03:35:33;;;;;;;17.87;10.73;;;11.90;92.40;;;;;;5054478;28;20477;-76
2022/05/05 03:37:59;;;;;;;14.67;9.40;;;11.90;92.50;;;;;;5054450;28;20426;-75
2022/05/05 03:40:25;;;;;;;13.57;9.23;;;11.80;92.60;;;;;;5054328;28;20522;-75
2022/05/05 03:42:51;;;;;;;16.10;9.53;;;11.90;92.60;;;;;;5052632;28;20972;-75
2022/05/05 03:45:17;;;;;;;17.47;10.10;;;12.00;92.40;;;;;;5054214;28;20184;-76
2022/05/05 03:47:42;;;;;;;17.17;10.40;;;12.00;92.30;;;;;;5057006;28;20192;-76
2022/05/05 03:50:09;;;;;;;16.53;9.93;;;12.00;92.20;;;;;;5057791;28;20201;-75
2022/05/05 03:52:35;;;;;;;14.80;10.20;;;12.00;92.20;;;;;;5054453;28;20628;-75
2022/05/05 03:55:01;;;;;;;17.17;10.90;;;12.00;92.00;;;;;;5057526;28;20963;-76
2022/05/05 03:57:26;;;;;;;14.87;10.47;;;12.00;92.00;;;;;;5051436;28;20550;-77
2022/05/05 03:59:52;;;;;;;18.33;11.37;;;12.00;91.90;;;;;;5045353;28;20257;-75
2022/05/05 04:02:18;;;;;;;15.93;9.50;;;12.00;92.00;;;;;;5055645;28;20191;-75
2022/05/05 04:04:43;;;;;;;14.57;9.03;;;12.00;92.10;;;;;;5055234;28;20193;-75
2022/05/05 04:07:09;;;;;;;16.60;9.73;;;12.20;92.00;;;;;;5055857;28;20188;-75
2022/05/05 04:09:35;;;;;;;18.80;10.00;;;12.20;91.90;;;;;;5054338;28;20299;-76
2022/05/05 04:12:01;;;;;;;16.27;9.60;;;12.30;91.90;;;;;;5057805;28;20425;-74
2022/05/05 04:14:26;;;;;;;14.67;9.47;;;12.30;91.70;;;;;;5055839;28;20226;-76
2022/05/05 04:16:52;;;;;;;14.40;10.10;;;12.40;91.70;;;;;;5054601;28;20207;-75
2022/05/05 04:19:18;;;;;;;16.37;10.83;;;12.40;91.40;;;;;;5057778;28;20230;-76
2022/05/05 04:21:44;;;;;;;14.57;9.73;;;12.40;91.20;;;;;;5054529;28;20191;-75
2022/05/05 04:24:09;;;;;;;15.40;10.20;;;12.40;91.20;;;;;;5056728;28;20631;-75
2022/05/05 04:26:35;;;;;;;15.13;10.10;;;12.40;91.20;;;;;;5054107;28;20185;-75
2022/05/05 04:29:01;;;;;;;17.67;9.97;;;12.40;91.10;;;;;;5056517;28;20357;-76
2022/05/05 04:31:31;;;;;;;15.13;9.50;;;12.40;91.20;;;;;;5056294;28;20450;-76
2022/05/05 04:33:57;;;;;;;16.23;9.77;;;12.50;91.00;;;;;;5051453;28;20499;-76
2022/05/05 04:36:23;;;;;;;20.50;9.77;;;12.60;90.80;;;;;;5059112;28;20988;-75
2022/05/05 04:38:49;;;;;;;20.27;10.40;;;12.60;90.70;;;;;;5060660;28;20570;-75
2022/05/05 04:41:15;;;;;;;19.43;11.80;;;12.70;90.60;;;;;;5060194;28;20601;-75
2022/05/05 04:43:41;;;;;;;16.67;10.83;;;12.70;90.40;;;;;;5059962;28;20431;-74
2022/05/05 04:46:07;;;;;;;18.43;9.80;;;12.70;90.40;;;;;;5060153;28;20227;-73
2022/05/05 04:48:33;;;;;;;12.87;9.23;;;12.70;90.20;;;;;;5060652;28;20279;-74
2022/05/05 04:50:59;;;;;;;17.53;10.27;;;12.80;90.10;;;;;;5060810;28;20450;-76
2022/05/05 04:53:24;;;;;;;14.30;10.10;;;12.80;89.60;;;;;;5059944;28;20469;-76
2022/05/05 04:55:50;;;;;;;15.20;9.70;;;12.80;89.30;;;;;;5057783;28;20204;-75
2022/05/05 04:58:16;;;;;;;16.07;9.83;;;12.90;89.00;;;;;;5057505;28;20176;-76
2022/05/05 05:00:44;;;;;;;15.40;9.73;;;12.90;88.90;;;;;;5058946;28;20215;-75
2022/05/05 05:03:32;;;;;;;19.37;12.23;;;13.00;89.20;;;;;;5059111;28;20184;-75
2022/05/05 05:05:55;;;;;;;24.10;13.97;;;13.00;89.00;;;;;;5057596;28;20913;-77
2022/05/05 05:08:21;;;;;;;30.93;14.03;;;13.00;89.30;;;;;;5060191;28;20434;-75
2022/05/05 05:10:46;;;;;;;25.10;13.97;;;13.10;89.70;;;;;;5060145;28;20239;-75
2022/05/05 05:13:12;;;;;;;31.77;15.00;;;13.20;89.90;;;;;;5059350;28;20581;-75
2022/05/05 05:15:38;;;;;;;28.70;15.77;;;13.20;89.70;;;;;;5059684;28;20300;-75
2022/05/05 05:18:04;;;;;;;31.53;16.63;;;13.20;89.60;;;;;;5058736;28;20184;-75
2022/05/05 05:20:29;;;;;;;31.87;14.97;;;13.20;89.60;;;;;;5056443;28;20586;-74
2022/05/05 05:22:56;;;;;;;29.80;16.87;;;13.10;90.00;;;;;;5055698;28;20200;-74
2022/05/05 05:25:21;;;;;;;27.83;15.77;;;13.20;90.00;;;;;;5055302;28;21036;-73
2022/05/05 05:27:47;;;;;;;29.57;16.13;;;13.20;90.30;;;;;;5057936;28;20184;-73
2022/05/05 05:30:13;;;;;;;28.93;16.20;;;13.30;90.00;;;;;;5056383;28;20452;-75
2022/05/05 05:32:39;;;;;;;27.30;15.70;;;13.40;89.70;;;;;;5053953;28;20219;-74
2022/05/05 05:35:05;;;;;;;28.13;16.40;;;13.40;89.50;;;;;;5053909;28;20196;-75
2022/05/05 05:37:31;;;;;;;27.00;16.97;;;13.40;89.50;;;;;;5052480;28;20215;-74
2022/05/05 05:39:57;;;;;;;24.83;16.30;;;13.40;89.30;;;;;;5054571;28;20447;-73
2022/05/05 05:42:22;;;;;;;25.97;15.27;;;13.40;89.30;;;;;;5058143;28;20192;-74
2022/05/05 05:44:48;;;;;;;26.00;15.67;;;13.50;89.30;;;;;;5058080;28;20189;-74
2022/05/05 05:47:14;;;;;;;27.67;15.13;;;13.40;89.20;;;;;;5055117;28;20197;-73
2022/05/05 05:49:40;;;;;;;31.93;14.70;;;13.40;89.30;;;;;;5055863;28;20535;-74
2022/05/05 05:52:06;;;;;;;22.80;13.80;;;13.50;89.00;;;;;;5053639;28;20200;-74
2022/05/05 05:54:31;;;;;;;30.67;16.60;;;13.50;88.60;;;;;;5054299;28;20281;-75
2022/05/05 05:56:57;;;;;;;27.23;15.13;;;13.50;88.40;;;;;;5056449;28;21016;-74
2022/05/05 05:59:23;;;;;;;27.80;16.03;;;13.60;88.60;;;;;;5057095;28;20219;-73
2022/05/05 06:04:33;;;;;;;26.10;14.20;;;13.60;88.70;;;;;;5055417;28;20189;-74
2022/05/05 06:07:00;;;;;;;27.50;15.10;;;13.70;88.60;;;;;;5057830;28;20407;-74
2022/05/05 06:09:26;;;;;;;26.20;16.10;;;13.80;88.30;;;;;;5058637;28;20512;-74
2022/05/05 06:11:52;;;;;;;20.43;13.80;;;13.90;88.00;;;;;;5056831;28;20423;-75
2022/05/05 06:14:18;;;;;;;28.93;15.70;;;14.00;87.70;;;;;;5057470;28;20204;-73
2022/05/05 06:16:44;;;;;;;27.13;15.17;;;14.10;86.90;;;;;;5058049;28;20980;-73
2022/05/05 06:19:10;;;;;;;21.33;13.70;;;14.10;85.90;;;;;;5057295;28;20476;-75
2022/05/05 06:21:35;;;;;;;22.07;13.40;;;14.10;85.90;;;;;;5055829;28;20644;-76
2022/05/05 06:24:01;;;;;;;23.20;13.40;;;14.10;85.70;;;;;;5056008;28;20173;-75
2022/05/05 06:26:27;;;;;;;23.83;14.40;;;14.10;85.60;;;;;;5055222;28;20196;-74
2022/05/05 06:28:55;;;;;;;22.00;12.37;;;14.20;85.70;;;;;;5055037;28;20214;-74
2022/05/05 06:31:20;;;;;;;25.43;14.00;;;14.20;85.90;;;;;;5053491;28;20455;-75
2022/05/05 06:33:47;;;;;;;23.93;13.67;;;14.20;84.70;;;;;;5050784;28;20423;-74
2022/05/05 06:36:13;;;;;;;20.30;12.87;;;14.20;84.70;;;;;;5050563;28;20211;-75
2022/05/05 06:38:39;;;;;;;22.97;13.20;;;14.20;84.70;;;;;;5051133;28;20427;-74
2022/05/05 06:41:04;;;;;;;22.20;13.10;;;14.30;84.90;;;;;;5051274;28;20208;-74
2022/05/05 06:43:30;;;;;;;22.47;14.10;;;14.40;84.70;;;;;;5051111;28;20427;-74
2022/05/05 06:45:56;;;;;;;21.50;13.53;;;14.50;84.40;;;;;;5049623;28;20280;-75
2022/05/05 06:48:22;;;;;;;20.57;13.47;;;14.50;84.00;;;;;;5051013;28;20885;-75
2022/05/05 06:50:48;;;;;;;20.83;12.87;;;14.20;83.40;;;;;;5047346;28;20949;-75
2022/05/05 06:53:14;;;;;;;22.60;14.07;;;14.20;84.10;;;;;;5051445;28;20514;-74
2022/05/05 06:55:40;;;;;;;28.93;15.47;;;14.30;84.40;;;;;;5050561;28;20223;-74
2022/05/05 06:58:05;;;;;;;35.67;12.17;;;14.30;84.60;;;;;;5053416;28;20250;-74
2022/05/05 07:03:16;;;;;;;23.67;14.33;;;14.30;83.80;;;;;;5050625;28;20249;-75
2022/05/05 07:05:41;;;;;;;19.90;12.00;;;14.20;84.10;;;;;;5050767;28;20427;-76
2022/05/05 07:08:07;;;;;;;21.57;12.87;;;14.10;84.70;;;;;;5056852;28;20188;-74
2022/05/05 07:13:17;;;;;;;22.97;11.90;;;14.10;84.70;;;;;;5051415;28;20570;-75
2022/05/05 07:15:43;;;;;;;20.90;12.47;;;14.10;84.40;;;;;;5050490;28;20466;-75
2022/05/05 07:18:09;;;;;;;18.80;11.83;;;14.10;84.70;;;;;;5049542;28;20184;-74
2022/05/05 07:20:35;;;;;;;20.70;11.90;;;14.10;84.90;;;;;;5052183;28;20445;-75
2022/05/05 07:23:01;;;;;;;19.33;11.03;;;14.00;85.00;;;;;;5054613;28;20264;-74
2022/05/05 07:25:26;;;;;;;24.43;11.90;;;14.10;85.50;;;;;;5053826;28;20567;-75
2022/05/05 07:27:52;;;;;;;18.23;12.23;;;14.00;85.00;;;;;;5055256;28;20181;-74
2022/05/05 07:30:19;;;;;;;17.80;11.93;;;14.00;85.70;;;;;;5053580;28;20574;-75
2022/05/05 07:32:44;;;;;;;20.30;12.13;;;14.10;86.00;;;;;;5053130;28;21051;-73
2022/05/05 07:35:11;;;;;;;19.17;11.57;;;14.20;85.50;;;;;;5051606;28;20419;-74
2022/05/05 07:37:39;;;;;;;20.03;12.00;;;14.40;85.00;;;;;;5050448;28;20595;-74
2022/05/05 07:40:06;;;;;;;19.60;12.43;;;14.30;84.40;;;;;;5049909;28;20447;-74
2022/05/05 07:42:32;;;;;;;17.57;11.20;;;14.20;84.90;;;;;;5049578;28;20453;-74
2022/05/05 07:44:58;;;;;;;20.60;11.30;;;14.20;84.90;;;;;;5049728;28;20526;-72
2022/05/05 07:47:24;;;;;;;17.23;10.97;;;14.40;85.00;;;;;;5049604;28;20899;-72
2022/05/05 07:49:50;;;;;;;17.33;11.70;;;14.40;84.90;;;;;;5049703;28;20205;-73
2022/05/05 07:52:15;;;;;;;15.10;10.40;;;14.50;84.60;;;;;;5047720;28;20533;-71
2022/05/05 07:54:44;;;;;;;22.03;12.87;;;14.60;85.00;;;;;;5049375;28;20212;-73
2022/05/05 07:57:12;;;;;;;23.90;12.07;;;14.80;83.70;;;;;;5048783;28;20284;-72
2022/05/05 07:59:38;;;;;;;20.80;12.20;;;14.80;83.40;;;;;;5048848;28;20447;-75
2022/05/05 08:02:08;;;;;;;18.53;12.57;;;14.70;83.60;;;;;;5048912;28;20442;-74
2022/05/05 08:04:34;;;;;;;19.23;11.73;;;14.70;84.10;;;;;;5048904;28;20559;-75
2022/05/05 08:07:00;;;;;;;21.33;12.90;;;14.90;84.40;;;;;;5049616;28;20511;-74
2022/05/05 08:09:26;;;;;;;21.20;12.20;;;14.90;83.70;;;;;;5049770;28;20974;-77
2022/05/05 08:11:51;;;;;;;19.20;12.37;;;14.80;83.60;;;;;;5050344;28;20415;-74
2022/05/05 08:14:17;;;;;;;22.27;13.27;;;14.80;84.00;;;;;;5050388;28;20423;-72
2022/05/05 08:16:43;;;;;;;21.53;13.77;;;14.70;84.00;;;;;;5051020;28;20362;-74
2022/05/05 08:19:09;;;;;;;22.10;13.53;;;14.60;84.30;;;;;;5051903;28;20189;-74
2022/05/05 08:21:35;;;;;;;20.73;13.60;;;14.60;84.60;;;;;;5050244;28;20435;-76
2022/05/05 08:29:28;;;;;;;20.80;13.37;;;15.00;84.60;;;;;;5050443;28;20891;-74
2022/05/05 08:31:55;;;;;;;20.43;13.20;;;15.30;83.30;;;;;;5050423;28;20417;-74
2022/05/05 08:34:21;;;;;;;26.23;12.70;;;15.30;82.20;;;;;;5049223;28;20188;-74
2022/05/05 08:36:47;;;;;;;21.23;13.53;;;15.40;80.90;;;;;;5049733;28;20491;-73
2022/05/05 08:39:12;;;;;;;19.10;12.03;;;15.30;81.20;;;;;;5050012;28;20189;-75
2022/05/05 08:41:40;;;;;;;20.73;13.37;;;15.30;81.50;;;;;;5050010;28;20264;-75
2022/05/05 08:44:06;;;;;;;24.77;13.20;;;15.30;80.80;;;;;;5045252;28;20231;-74
2022/05/05 08:46:33;;;;;;;25.00;13.33;;;15.10;81.50;;;;;;5050236;28;20453;-73
2022/05/05 08:49:06;;;;;;;29.30;15.43;;;15.10;82.40;;;;;;5050149;28;20759;-75
2022/05/05 08:51:44;;;;;;;23.63;13.70;;;15.30;81.70;;;;;;5048757;28;20443;-75
2022/05/05 08:54:16;;;;;;;32.13;16.50;;;15.50;80.90;;;;;;5044707;28;20451;-75
2022/05/05 08:56:52;;;;;;;30.63;16.13;;;15.10;81.50;;;;;;5050229;28;20466;-75
2022/05/05 08:59:19;;;;;;;27.97;16.93;;;14.90;82.80;;;;;;5051209;28;20948;-74
2022/05/05 09:01:45;;;;;;;33.80;20.90;;;15.00;83.10;;;;;;5050395;28;20951;-74
2022/05/05 09:04:11;;;;;;;34.33;20.37;;;15.10;81.90;;;;;;5050040;28;20529;-74
2022/05/05 09:06:47;;;;;;;34.50;20.13;;;15.00;81.90;;;;;;5048777;28;20419;-73
2022/05/05 09:09:33;;;;;;;29.60;18.50;;;14.90;82.70;;;;;;5049907;28;20430;-74
2022/05/05 09:12:19;;;;;;;29.27;17.93;;;14.90;82.80;;;;;;5053428;28;20414;-73
2022/05/05 09:14:47;;;;;;;28.93;17.83;;;15.00;83.10;;;;;;5050728;28;20511;-75
2022/05/05 09:17:18;;;;;;;30.03;18.00;;;15.10;83.10;;;;;;5051483;28;20456;-76
2022/05/05 09:19:49;;;;;;;30.60;17.80;;;15.20;82.80;;;;;;5051343;28;20450;-75
2022/05/05 09:22:18;;;;;;;30.13;19.30;;;15.20;82.50;;;;;;5054274;28;20431;-75
2022/05/05 09:24:46;;;;;;;31.90;19.40;;;15.00;83.70;;;;;;5054677;28;20415;-75
2022/05/05 09:27:23;;;;;;;41.50;21.90;;;14.90;84.00;;;;;;5054377;28;20426;-75
2022/05/05 09:30:06;;;;;;;33.63;19.67;;;14.90;83.70;;;;;;5054137;28;20450;-75
2022/05/05 09:32:37;;;;;;;32.97;19.40;;;15.00;83.40;;;;;;5055944;28;20422;-75
2022/05/05 09:35:13;;;;;;;34.10;20.13;;;15.10;83.70;;;;;;5055537;28;20416;-76
2022/05/05 09:37:46;;;;;;;33.63;20.03;;;15.20;83.10;;;;;;5054702;28;20466;-74
2022/05/05 09:40:14;;;;;;;32.17;20.10;;;15.30;82.40;;;;;;5046952;28;20434;-74
2022/05/05 09:42:47;;;;;;;30.47;19.23;;;15.20;81.80;;;;;;5053437;28;20506;-74
2022/05/05 09:45:21;;;;;;;32.43;20.77;;;15.20;82.20;;;;;;5054398;28;20411;-76
2022/05/05 09:47:55;;;;;;;33.30;20.20;;;15.30;81.50;;;;;;5055016;28;20425;-75
2022/05/05 09:50:23;;;;;;;34.10;20.60;;;15.20;81.70;;;;;;5053350;28;20538;-74
2022/05/05 09:58:26;;;;;;;34.23;20.70;;;15.70;80.90;;;;;;5054119;28;20430;-74
2022/05/05 10:06:41;;;;;;;30.87;20.00;;;16.00;79.30;;;;;;5054908;28;20413;-74
2022/05/05 10:09:09;;;;;;;33.47;21.47;;;15.90;79.00;;;;;;5047540;28;20415;-74
2022/05/05 10:11:35;;;;;;;33.90;20.73;;;15.80;78.60;;;;;;5054689;28;20426;-74
2022/05/05 10:14:03;;;;;;;31.93;20.10;;;15.90;79.00;;;;;;5054135;28;20938;-75
2022/05/05 10:16:32;;;;;;;34.33;21.73;;;16.10;78.30;;;;;;5053297;28;21072;-74
2022/05/05 10:18:59;;;;;;;31.77;19.80;;;16.20;77.40;;;;;;5047068;28;20418;-75
2022/05/05 10:21:30;;;;;;;34.80;21.70;;;16.40;77.10;;;;;;5054199;28;20419;-75
2022/05/05 10:24:31;;;;;;;32.93;20.60;;;16.40;75.80;;;;;;5052444;28;20495;-72
2022/05/05 10:26:59;;;;;;;32.90;20.63;;;16.40;75.90;;;;;;5050395;28;20415;-74
2022/05/05 10:29:31;;;;;;;32.80;20.73;;;16.60;75.80;;;;;;5057627;28;20445;-74
2022/05/05 10:32:19;;;;;;;34.83;21.83;;;16.70;75.20;;;;;;5047148;28;20415;-74
2022/05/05 10:35:17;;;;;;;39.80;21.60;;;16.50;74.30;;;;;;5052830;28;20427;-73
2022/05/05 10:37:43;;;;;;;34.77;21.90;;;16.60;75.50;;;;;;5034404;28;20501;-74
2022/05/05 10:40:10;;;;;;;32.03;20.30;;;16.80;75.20;;;;;;5053143;28;20492;-74
2022/05/05 10:42:45;;;;;;;28.23;18.93;;;17.10;73.90;;;;;;5053390;28;20517;-75
2022/05/05 10:45:16;;;;;;;33.87;19.93;;;17.30;72.60;;;;;;5052168;28;20626;-74
2022/05/05 10:48:06;;;;;;;32.30;19.80;;;17.40;72.10;;;;;;5053180;28;20427;-75
2022/05/05 10:51:02;;;;;;;36.63;22.40;;;17.60;72.00;;;;;;5053300;28;20447;-74
2022/05/05 10:53:42;;;;;;;31.80;21.67;;;17.60;71.80;;;;;;5053129;28;20805;-75
2022/05/05 10:56:20;;;;;;;35.03;21.70;;;17.70;70.80;;;;;;5045545;28;20526;-75
2022/05/05 10:59:04;;;;;;;33.87;22.77;;;17.40;72.30;;;;;;5052036;28;20437;-74
2022/05/05 11:01:42;;;;;;;28.10;19.43;;;17.30;72.90;;;;;;5052958;28;20415;-73
2022/05/05 11:04:28;;;;;;;34.43;22.27;;;17.20;73.60;;;;;;5053054;28;20414;-73
2022/05/05 11:07:20;;;;;;;35.60;22.70;;;17.30;74.20;;;;;;5051798;28;20445;-76
2022/05/05 11:09:45;;;;;;;33.40;21.30;;;17.10;73.90;;;;;;5052953;28;20543;-74
2022/05/05 11:12:21;;;;;;;37.93;22.60;;;17.00;74.90;;;;;;5052730;28;20445;-75
2022/05/05 11:23:26;;;;;;;39.00;23.20;;;16.40;77.80;;;;;;5051353;28;20445;-73
2022/05/05 11:25:54;;;;;;;38.27;22.30;;;16.10;78.90;;;;;;5053498;28;20443;-74
2022/05/05 11:28:21;;;;;;;37.40;23.83;;;15.90;79.60;;;;;;5050595;28;20430;-76
2022/05/05 11:30:47;;;;;;;44.83;25.03;;;15.90;81.80;;;;;;5051609;28;20445;-75
2022/05/05 11:33:13;;;;;;;37.90;23.97;;;15.90;82.10;;;;;;5051714;28;20899;-73
2022/05/05 11:35:39;;;;;;;36.97;24.40;;;15.90;81.70;;;;;;5051411;28;20272;-74
2022/05/05 11:38:11;;;;;;;41.33;24.40;;;15.60;82.20;;;;;;5051264;28;20178;-76
2022/05/05 11:40:37;;;;;;;45.33;23.73;;;15.40;83.40;;;;;;5046184;28;20445;-72
2022/05/05 11:45:54;;;;;;;38.07;23.60;;;15.20;83.30;;;;;;5050576;28;20405;-76
2022/05/05 11:48:20;;;;;;;44.00;25.50;;;15.10;83.80;;;;;;5051768;28;20434;-74
2022/05/05 11:50:46;;;;;;;41.67;24.80;;;14.90;84.90;;;;;;5051513;28;20435;-74
2022/05/05 11:53:17;;;;;;;48.20;24.20;;;14.90;86.30;;;;;;5050529;28;20447;-74
2022/05/05 11:55:46;;;;;;;43.77;24.40;;;15.10;87.60;;;;;;5050276;28;20198;-74
2022/05/05 12:01:36;;;;;;;44.30;24.03;;;15.30;86.90;;;;;;5048167;28;20431;-73
2022/05/05 12:04:00;;;;;;;40.70;23.07;;;15.40;85.20;;;;;;5051261;28;20598;-75
2022/05/05 12:06:27;;;;;;;41.60;24.47;;;15.40;85.50;;;;;;5047355;28;20515;-74
2022/05/05 12:08:55;;;;;;;44.93;25.97;;;15.50;85.50;;;;;;5051040;28;20415;-75
2022/05/05 12:11:21;;;;;;;43.03;23.80;;;15.30;85.50;;;;;;5050981;28;20439;-74
2022/05/05 12:13:49;;;;;;;39.07;23.70;;;15.30;84.90;;;;;;5050242;28;20418;-75
2022/05/05 12:16:17;;;;;;;43.50;24.37;;;15.10;84.60;;;;;;5051184;28;20242;-75
2022/05/05 12:18:50;;;;;;;50.70;26.53;;;14.90;86.00;;;;;;5051812;28;21151;-74
2022/05/05 12:21:25;;;;;;;46.03;26.03;;;14.60;86.50;;;;;;5050383;28;20538;-74
2022/05/05 12:23:59;;;;;;;47.23;27.73;;;14.70;87.70;;;;;;5047602;28;20442;-74
2022/05/05 12:26:38;;;;;;;46.90;26.17;;;14.70;87.00;;;;;;5050056;28;20481;-74
2022/05/05 12:29:15;;;;;;;48.73;26.27;;;14.80;87.70;;;;;;5042849;28;21106;-74
2022/05/05 12:31:55;;;;;;;51.60;27.07;;;15.10;88.00;;;;;;5048595;28;20925;-74
2022/05/05 12:34:27;;;;;;;52.07;28.57;;;15.20;86.30;;;;;;5049858;28;20435;-75
2022/05/05 12:37:11;;;;;;;47.30;26.33;;;15.30;85.60;;;;;;5048681;28;20478;-75
2022/05/05 12:40:01;;;;;;;53.00;26.33;;;15.50;85.30;;;;;;5050124;28;20481;-75
2022/05/05 12:42:43;;;;;;;52.67;28.40;;;15.50;85.50;;;;;;5045578;28;20422;-73
2022/05/05 12:45:37;;;;;;;53.27;28.10;;;15.40;84.90;;;;;;5045530;28;20415;-74
2022/05/05 12:48:06;;;;;;;49.23;26.53;;;15.40;85.30;;;;;;5048113;28;20450;-75
2022/05/05 12:50:35;;;;;;;45.93;24.10;;;15.40;84.90;;;;;;5049963;28;21003;-75
2022/05/05 13:01:54;;;;;;;42.27;24.90;;;15.70;81.80;;;;;;5052687;28;20497;-73
2022/05/05 13:04:20;;;;;;;40.40;22.57;;;15.80;81.80;;;;;;5054658;28;20422;-73
2022/05/05 13:06:50;;;;;;;39.97;22.27;;;15.80;82.80;;;;;;5053361;28;20503;-74
2022/05/05 13:09:17;;;;;;;46.67;23.70;;;15.80;83.40;;;;;;5053296;28;20422;-74
2022/05/05 13:11:46;;;;;;;44.17;23.20;;;15.90;83.00;;;;;;5052885;28;20429;-74
2022/05/05 13:14:12;;;;;;;40.47;20.63;;;16.00;81.80;;;;;;5050984;28;20436;-74
2022/05/05 13:16:38;;;;;;;42.90;23.03;;;16.30;82.70;;;;;;5053875;28;20559;-74
2022/05/05 13:19:06;;;;;;;43.50;21.87;;;16.60;81.50;;;;;;5054511;28;20403;-75
2022/05/05 13:21:33;;;;;;;40.27;22.70;;;16.80;79.50;;;;;;5054020;28;20444;-74
2022/05/05 13:23:59;;;;;;;42.50;22.03;;;16.60;80.20;;;;;;5052344;28;20790;-74
2022/05/05 13:26:25;;;;;;;39.20;22.00;;;16.80;80.30;;;;;;5052631;28;20582;-74
2022/05/05 13:28:51;;;;;;;41.03;23.10;;;17.00;79.30;;;;;;5053093;28;20837;-75
2022/05/05 13:31:17;;;;;;;37.03;21.77;;;17.10;78.60;;;;;;5054736;28;20200;-73
2022/05/05 13:33:43;;;;;;;43.50;23.70;;;17.40;77.60;;;;;;5051506;28;20426;-75
2022/05/05 13:36:08;;;;;;;41.93;20.90;;;17.70;76.80;;;;;;5053923;28;20220;-75